This is the latest recevied weather packets stored in our database for station/object KF0TNT. If no packets are shown the sender has not sent any weather packets the latest 10 day(s).
| Time | Temp. | Humidity | Pressure | Rain* | Wind** | Luminosity | Snow |
|---|---|---|---|---|---|---|---|
| 1777830650 | 16.67° C | 22% | 1020.5 hPa | 0 mm | - | 853 W/m² | - |
| 1777830347 | 16.67° C | 22% | 1020.9 hPa | 0 mm | - | 741 W/m² | - |
| 1777830043 | 16.67° C | 22% | 1020.6 hPa | 0 mm | - | 883 W/m² | - |
| 1777829738 | 16.11° C | 22% | 1020.6 hPa | 0 mm | - | 724 W/m² | - |
| 1777829435 | 16.67° C | 22% | 1020.9 hPa | 0 mm | - | 558 W/m² | - |
| 1777829133 | 16.11° C | 22% | 1020.7 hPa | 0 mm | - | 788 W/m² | - |
| 1777828830 | 16.11° C | 22% | 1020.7 hPa | 0 mm | - | 673 W/m² | - |
| 1777828526 | 15.56° C | 23% | 1020.9 hPa | 0 mm | - | 558 W/m² | - |
| 1777828224 | 15.56° C | 23% | 1021.1 hPa | 0 mm | - | 603 W/m² | - |
| 1777827920 | 15.56° C | 24% | 1021.2 hPa | 0 mm | - | 603 W/m² | - |
| 1777827618 | 15.56° C | 24% | 1021.1 hPa | 0 mm | - | 603 W/m² | - |
| 1777827315 | 15° C | 24% | 1021.1 hPa | 0 mm | - | 658 W/m² | - |
| 1777827011 | 15° C | 24% | 1021.2 hPa | 0 mm | - | 497 W/m² | - |
| 1777826708 | 15° C | 24% | 1021.3 hPa | 0 mm | - | 435 W/m² | - |
| 1777826405 | 15° C | 24% | 1021.3 hPa | 0 mm | - | 452 W/m² | - |
| 1777826102 | 14.44° C | 25% | 1021.3 hPa | 0 mm | - | 392 W/m² | - |
| 1777825798 | 14.44° C | 25% | 1021.5 hPa | 0 mm | - | 355 W/m² | - |
| 1777825496 | 14.44° C | 24% | 1021.3 hPa | 0 mm | - | 349 W/m² | - |
| 1777825193 | 14.44° C | 25% | 1021.3 hPa | 0 mm | - | 381 W/m² | - |
| 1777824890 | 14.44° C | 25% | 1021.3 hPa | 0 mm | - | 353 W/m² | - |
| 1777824586 | 14.44° C | 25% | 1021.2 hPa | 0 mm | - | 369 W/m² | - |
| 1777824283 | 14.44° C | 25% | 1021.3 hPa | 0 mm | - | 415 W/m² | - |
| 1777823978 | 14.44° C | 24% | 1021.1 hPa | 0 mm | - | 361 W/m² | - |
| 1777823676 | 14.44° C | 25% | 1021.3 hPa | 0 mm | - | 349 W/m² | - |
| 1777823372 | 14.44° C | 25% | 1021.3 hPa | 0 mm | - | 355 W/m² | - |
* Rain latest hour (hover to see other rain measurements)
** Current wind speed in m/s (hover to see current wind gust speed)